Historyczne dane pomiarowe

Dodano dane terminowe – wersja testowa.

Dane z okresu 1951-2019

Wersja bazy: 1.34 [2019-03-16, lista zmian], aktualizacja planowana na 2019-04-15

Dane meteo z obszaru Polski uzyskane na podstawie danych udostępnionych przez Instytut Meteorologii i Gospodarki Wodnej – Państwowy Instytut Badawczy.

 

Wybierz Datę:    

       

TemperaturaWilgotnośćWiatrCiśnienieOpadyŚniegCzas trwania zjawisk
 Stacja t tx tn tng RH VA  wxwx mslp ppp RRR   cm mm wxwxwxwxwxwxwx
2019-10-31 0.1 6.8 -4.7 -6.0 85.8 5.2- 1.3--1029.6 992.2 0.0 0.0 0.0x- 7.0-------
2019-10-30 1.4 5.7 -0.4 -3.7 93.8 6.3- 1.4--1025.4 988.3 0.0 0.0 0.0x- 3.0-------
2019-10-29 4.3 7.8 1.5 -0.2 91.1 7.6- 2.1--1021.3 984.8 0.0 0.0 0.0x- 0.0-------
2019-10-28 6.8 12.7 5.2 2.5 82.9 8.1- 2.1--1021.0 984.8 0.0 0.0 0.0x- 5.9-------
2019-10-27 14.3 21.5 11.1 9.1 68.5 10.7- 3.3--1017.0 981.9 0.3 0.0 0.3x- 9.3-------
2019-10-26 13.2 21.2 7.2 5.9 76.5 11.2- 1.8--1021.9 986.5 0.0 0.0 0.0x- 8.7-------
2019-10-25 13.9 19.7 9.8 5.1 74.5 11.7- 1.4--1020.6 985.3 0.0 0.0 0.0x- 9.2-------
2019-10-24 15.2 24.7 7.9 6.2 68.3 10.8- 2.1--1014.9 980.0 0.0 0.0 0.0x- 9.5-------
2019-10-23 13.4 19.3 8.0 6.3 89.5 13.8- 1.3--1021.9 986.5 0.1 0.0 0.1x- 5.7-------
2019-10-22 13.8 19.4 8.1 7.3 86.4 13.6- 1.5--1023.8 988.4 0.0 0.0 0.0x- 8.4-------
2019-10-21 15.4 22.4 10.7 8.5 74.3 12.8- 1.6--1019.4 984.3 0.0 0.0 0.0x- 9.0-------
2019-10-20 14.9 22.2 9.4 7.3 72.1 11.8- 2.0--1015.5 980.6 0.0 0.0 0.0x- 9.8-------
2019-10-19 12.9 17.9 9.0 7.2 78.1 11.4- 1.5--1015.2 980.0 0.0 0.0 0.0x- 6.6-------
2019-10-18 13.1 18.8 8.0 5.6 75.3 11.1- 2.3--1015.8 980.6 0.0 0.0 0.0x- 8.2-------
2019-10-17 12.8 19.6 7.5 5.5 72.6 10.4- 2.1--1018.3 983.0 0.0 0.0 0.0x- 8.8-------
2019-10-16 13.5 17.9 11.2 8.9 75.6 11.7- 2.6--1013.2 978.1 0.0 0.0 0.0x- 4.0-------
2019-10-15 16.6 24.7 10.6 6.9 68.8 12.3- 1.9--1012.8 978.2 0.0 0.0 0.0x- 5.7-------
2019-10-14 17.4 23.6 14.1 11.1 68.9 13.3- 2.3--1018.3 983.6 0.0 0.0 0.0x- 10.1-------
2019-10-13 16.4 22.0 12.8 11.2 67.6 12.4- 2.8--1018.8 983.8 0.0 0.0 0.0x- 9.6-------
2019-10-12 14.6 20.2 10.7 9.0 67.8 11.0- 3.1--1016.7 981.6 0.0 0.0 0.0x- 9.6-------
2019-10-11 10.6 14.3 6.5 4.9 78.5 9.9- 2.9--1019.7 984.1 0.0 0.0 0.0x- 6.7-------
2019-10-10 10.1 14.8 8.5 7.1 82.9 10.1- 2.4--1013.1 977.7 1.6 1.6 0.0x- 4.8-------
2019-10-09 11.1 15.3 8.5 7.9 87.9 11.6- 2.3--1011.2 975.9 5.1 0.2 4.9x- 1.2-------
2019-10-08 5.4 10.5 -1.3 -2.4 77.4 7.0- 3.1--1015.8 979.7 3.3 0.3 3.0x- 0.5-------
2019-10-07 2.8 8.6 -2.7 -4.2 73.1 5.3- 1.3--1016.9 980.4 0.0 0.0 0.0x- 8.0-------
2019-10-06 5.1 8.6 4.1 1.9 75.0 6.5- 2.6--1008.4 972.5 0.0 0.0 0.0x- 7.2-------
2019-10-05 7.7 9.9 6.8 6.5 86.0 9.1- 2.0--1008.1 972.5 4.9 4.9 0.0x- 0.0-------
2019-10-04 8.6 12.0 5.4 2.1 79.9 8.8- 1.3--1008.0 972.5 0.6 0.6 0.0x- 1.6-------
2019-10-03 7.7 10.9 5.5 5.4 87.6 9.2- 1.8--1008.1 972.5 0.0 0.0 0.0x- 3.8-------
2019-10-02 13.3 17.0 8.9 8.7 84.4 13.0- 2.6--1007.4 972.5 6.1 4.5 1.6x- 0.1-------
2019-10-01 14.0 18.8 8.6 7.1 69.1 10.8- 2.8--1009.1 974.3 0.0 0.0 0.0x- 7.2-------
2019-09-30 14.7 18.1 11.1 10.9 74.0 12.3- 3.0--1002.0 967.5 5.4 5.4 0.0x- 1.4-------
2019-09-29 14.4 18.4 10.3 8.6 74.6 12.0- 2.5--1010.2 975.4 0.0 0.0 0.0x- 6.8-------
2019-09-28 14.8 17.7 13.1 11.2 84.4 14.1- 1.6--1014.4 979.4 0.4 0.4 0.0x- 2.8-------
2019-09-27 14.3 20.3 7.9 7.6 83.4 13.5- 2.1--1014.7 979.7 1.6 0.0 1.6x- 6.1-------
2019-09-26 13.7 17.9 11.5 11.3 87.5------- 1.7 1.7 0.0x---------
2019-09-25 12.4 15.4 8.8 7.3 92.5 13.4- 1.4--1009.2 974.1 0.0 0.0 0.0x- 0.0-------
2019-09-24 11.6 17.5 9.0 9.5 82.9 11.2- 2.0--1015.4 980.0 0.0 0.0 0.0x- 6.0-------
2019-09-23 14.3 21.0 7.2 4.8 67.8 10.5- 2.0--1015.6 980.5 0.0 0.0 0.0x- 11.0-------
2019-09-22 13.6 21.1 6.8 5.3 63.5 9.4- 2.0--1018.5 983.2 0.0 0.0 0.0x- 11.4-------
2019-09-21 11.2 17.7 5.9 4.9 70.3 9.1- 1.6--1024.9 989.1 0.0 0.0 0.0x- 10.0-------
2019-09-20 8.8 14.2 3.8 2.7 80.4 8.9- 1.8--1027.2 991.1 0.0 0.0 0.0x- 5.7-------
2019-09-19 7.4 12.5 4.3 3.3 85.8 8.8- 1.5--1025.0 988.8 0.4 0.4 0.0x- 4.7-------
2019-09-18 9.6 14.0 6.4 5.9 69.4 8.1- 2.8--1018.5 982.8 0.0 0.0 0.0x- 5.3-------
2019-09-17 11.4 14.9 9.0 8.3 77.1 10.2- 1.9--1013.5 978.2 0.1 0.0 0.1x- 1.8-------
2019-09-16 14.2 17.5 13.2 11.2 73.5 11.8- 1.5--1016.9 981.8 0.0 0.0 0.0x- 0.2-------
2019-09-15 13.9 21.7 5.7 4.6 69.6 10.7- 1.9--1023.4 988.0 0.0 0.0 0.0x- 10.6-------
2019-09-14 12.7 17.9 8.4 5.8 71.6 10.2- 2.0--1032.4 996.6 0.0 0.0 0.0x- 9.0-------
2019-09-13 16.7 22.4 11.7 10.1 77.4 14.4- 1.6--1028.5 993.2 0.0 0.0 0.0x- 6.2-------
2019-09-12 16.6 23.0 10.7 8.8 70.0 12.7- 1.5--1027.8 992.6 0.0 0.0 0.0x- 11.4-------
2019-09-11 16.0 22.5 9.4 8.3 70.3 12.3- 1.4--1024.2 989.1 0.0 0.0 0.0x- 10.4-------
2019-09-10 14.3 19.5 10.9 10.2 74.9 11.9- 2.6--1017.9 982.8 0.0 0.0 0.0x- 6.8-------
2019-09-09 14.7 19.4 13.4 13.1 93.0 15.5- 2.5--1012.4 977.5 3.2 3.2 0.0x- 0.4-------
2019-09-08 14.2 16.7 12.2 12.3 89.9 14.5- 1.9--1018.0 982.8 7.0 2.7 4.3x- 0.4-------
2019-09-07 16.2 22.2 13.0 12.8 71.5 13.0- 1.8--1018.2 983.3 12.5 3.5 9.0x- 4.8-------
2019-09-06 15.6 20.1 12.7 12.4 60.1 10.5- 2.6--1023.0 987.9 0.0 0.0 0.0x- 5.2-------
2019-09-05 18.1 25.2 11.0 9.4 62.3 12.4- 2.4--1015.1 980.5 0.0 0.0 0.0x- 10.7-------
2019-09-04 17.2 22.9 12.3 11.2 58.3 11.0- 1.5--1019.7 984.9 0.0 0.0 0.0x- 10.2-------
2019-09-03 14.9 19.8 11.5 11.4 72.9 11.9- 1.3--1023.2 988.0 0.0 0.0 0.0x- 6.7-------
2019-09-02 16.2 25.9 12.5 12.1 88.6 16.3- 3.4--1017.6 982.7 9.5 6.7 2.8x- 0.0-------
84.0 ms

 

Źródłem pochodzenia danych jest Instytut Meteorologii i Gospodarki Wodnej – Państwowy Instytut Badawczy. Dane Instytutu Meteorologii i Gospodarki Wodnej – Państwowego Instytutu Badawczego zostały przetworzone.

Dane źródłowe można odnaleźć na stronie https://dane.imgw.pl